sensor_id;sensor_type;location;lat;lon;timestamp;pressure;altitude;pressure_sealevel;temperature;humidity
3082;BME280;1551;51.046;7.010;2023-05-03T00:00:07;102074.69;;;8.36;67.63
3082;BME280;1551;51.046;7.010;2023-05-03T00:02:57;102083.16;;;8.33;67.81
3082;BME280;1551;51.046;7.010;2023-05-03T00:05:45;102085.41;;;8.21;68.20
3082;BME280;1551;51.046;7.010;2023-05-03T00:08:35;102084.41;;;8.14;68.01
3082;BME280;1551;51.046;7.010;2023-05-03T00:11:24;102084.22;;;8.07;67.74
3082;BME280;1551;51.046;7.010;2023-05-03T00:14:13;102085.13;;;8.09;68.04
3082;BME280;1551;51.046;7.010;2023-05-03T00:17:02;102080.78;;;8.05;67.77
3082;BME280;1551;51.046;7.010;2023-05-03T00:19:50;102074.81;;;8.04;68.58
3082;BME280;1551;51.046;7.010;2023-05-03T00:22:41;102067.91;;;7.99;67.69
3082;BME280;1551;51.046;7.010;2023-05-03T00:25:30;102061.94;;;7.97;67.91
3082;BME280;1551;51.046;7.010;2023-05-03T00:28:19;102061.94;;;7.98;68.10
3082;BME280;1551;51.046;7.010;2023-05-03T00:31:10;102069.53;;;7.95;68.51
3082;BME280;1551;51.046;7.010;2023-05-03T00:33:59;102066.69;;;7.83;69.09
3082;BME280;1551;51.046;7.010;2023-05-03T00:36:48;102057.13;;;7.73;69.27
3082;BME280;1551;51.046;7.010;2023-05-03T00:39:37;102065.69;;;7.77;69.56
3082;BME280;1551;51.046;7.010;2023-05-03T00:42:26;102067.44;;;7.79;69.93
3082;BME280;1551;51.046;7.010;2023-05-03T00:45:15;102066.63;;;7.80;69.20
3082;BME280;1551;51.046;7.010;2023-05-03T00:48:04;102069.91;;;7.76;69.91
3082;BME280;1551;51.046;7.010;2023-05-03T00:50:55;102084.41;;;7.77;70.15
3082;BME280;1551;51.046;7.010;2023-05-03T00:53:46;102074.97;;;7.73;70.22
3082;BME280;1551;51.046;7.010;2023-05-03T00:56:36;102080.00;;;7.72;70.41
3082;BME280;1551;51.046;7.010;2023-05-03T00:59:27;102079.28;;;7.76;70.27
3082;BME280;1551;51.046;7.010;2023-05-03T01:02:16;102074.81;;;7.67;70.52
3082;BME280;1551;51.046;7.010;2023-05-03T01:05:05;102079.78;;;7.62;70.95
3082;BME280;1551;51.046;7.010;2023-05-03T01:08:38;102070.44;;;7.61;71.26
3082;BME280;1551;51.046;7.010;2023-05-03T01:11:32;102068.63;;;7.57;71.91
3082;BME280;1551;51.046;7.010;2023-05-03T01:14:35;102063.38;;;7.51;73.20
3082;BME280;1551;51.046;7.010;2023-05-03T01:17:34;102065.13;;;7.52;73.27
3082;BME280;1551;51.046;7.010;2023-05-03T01:20:25;102057.47;;;7.52;72.89
3082;BME280;1551;51.046;7.010;2023-05-03T01:26:22;102065.03;;;7.49;72.88
3082;BME280;1551;51.046;7.010;2023-05-03T01:29:13;102060.81;;;7.50;72.47
3082;BME280;1551;51.046;7.010;2023-05-03T01:32:06;102061.53;;;7.44;73.20
3082;BME280;1551;51.046;7.010;2023-05-03T01:35:03;102070.41;;;7.27;72.90
3082;BME280;1551;51.046;7.010;2023-05-03T01:37:57;102064.31;;;7.21;72.88
3082;BME280;1551;51.046;7.010;2023-05-03T01:40:50;102058.53;;;7.28;72.67
3082;BME280;1551;51.046;7.010;2023-05-03T01:43:40;102066.28;;;7.31;72.77
3082;BME280;1551;51.046;7.010;2023-05-03T01:46:30;102058.47;;;7.25;72.50
3082;BME280;1551;51.046;7.010;2023-05-03T01:49:19;102068.66;;;7.25;72.65
3082;BME280;1551;51.046;7.010;2023-05-03T01:52:07;102063.38;;;7.17;72.18
3082;BME280;1551;51.046;7.010;2023-05-03T01:54:56;102065.94;;;7.17;72.55
3082;BME280;1551;51.046;7.010;2023-05-03T01:57:47;102071.94;;;7.21;72.79
3082;BME280;1551;51.046;7.010;2023-05-03T02:00:37;102073.56;;;7.17;72.83
3082;BME280;1551;51.046;7.010;2023-05-03T02:03:26;102074.94;;;7.06;73.00
3082;BME280;1551;51.046;7.010;2023-05-03T02:06:15;102080.66;;;6.98;72.43
3082;BME280;1551;51.046;7.010;2023-05-03T02:09:04;102088.22;;;6.94;72.51
3082;BME280;1551;51.046;7.010;2023-05-03T02:11:54;102089.06;;;6.93;73.04
3082;BME280;1551;51.046;7.010;2023-05-03T02:14:42;102084.13;;;7.00;72.40
3082;BME280;1551;51.046;7.010;2023-05-03T02:17:31;102093.31;;;6.94;73.01
3082;BME280;1551;51.046;7.010;2023-05-03T02:20:22;102086.41;;;6.90;73.12
3082;BME280;1551;51.046;7.010;2023-05-03T02:23:11;102096.63;;;6.92;72.97
3082;BME280;1551;51.046;7.010;2023-05-03T02:26:00;102099.88;;;6.86;72.91
3082;BME280;1551;51.046;7.010;2023-05-03T02:28:49;102107.41;;;6.83;73.05
3082;BME280;1551;51.046;7.010;2023-05-03T02:31:38;102106.53;;;6.81;73.34
3082;BME280;1551;51.046;7.010;2023-05-03T02:34:27;102102.22;;;6.79;74.34
3082;BME280;1551;51.046;7.010;2023-05-03T02:37:16;102107.28;;;6.77;73.55
3082;BME280;1551;51.046;7.010;2023-05-03T02:40:07;102108.03;;;6.75;74.07
3082;BME280;1551;51.046;7.010;2023-05-03T02:42:57;102112.84;;;6.66;74.02
3082;BME280;1551;51.046;7.010;2023-05-03T02:45:50;102107.59;;;6.60;74.74
3082;BME280;1551;51.046;7.010;2023-05-03T02:48:39;102112.81;;;6.64;74.29
3082;BME280;1551;51.046;7.010;2023-05-03T02:51:29;102109.22;;;6.58;74.84
3082;BME280;1551;51.046;7.010;2023-05-03T02:54:18;102099.72;;;6.52;74.91
3082;BME280;1551;51.046;7.010;2023-05-03T02:57:08;102114.69;;;6.42;75.20
3082;BME280;1551;51.046;7.010;2023-05-03T02:59:57;102102.66;;;6.36;75.33
3082;BME280;1551;51.046;7.010;2023-05-03T03:02:46;102100.25;;;6.41;74.65
3082;BME280;1551;51.046;7.010;2023-05-03T03:05:36;102106.28;;;6.44;75.76
3082;BME280;1551;51.046;7.010;2023-05-03T03:08:25;102105.47;;;6.45;75.54
3082;BME280;1551;51.046;7.010;2023-05-03T03:11:15;102096.19;;;6.47;75.70
3082;BME280;1551;51.046;7.010;2023-05-03T03:14:04;102097.81;;;6.44;76.02
3082;BME280;1551;51.046;7.010;2023-05-03T03:16:53;102099.59;;;6.48;75.91
3082;BME280;1551;51.046;7.010;2023-05-03T03:19:42;102094.34;;;6.42;76.01
3082;BME280;1551;51.046;7.010;2023-05-03T03:22:32;102090.78;;;6.35;76.82
3082;BME280;1551;51.046;7.010;2023-05-03T03:25:21;102090.53;;;6.28;76.47
3082;BME280;1551;51.046;7.010;2023-05-03T03:28:11;102086.09;;;6.20;76.90
3082;BME280;1551;51.046;7.010;2023-05-03T03:31:00;102078.75;;;6.31;76.65
3082;BME280;1551;51.046;7.010;2023-05-03T03:33:49;102072.75;;;6.28;76.58
3082;BME280;1551;51.046;7.010;2023-05-03T03:36:42;102082.94;;;6.29;77.22
3082;BME280;1551;51.046;7.010;2023-05-03T03:39:31;102075.38;;;6.31;77.61
3082;BME280;1551;51.046;7.010;2023-05-03T03:42:20;102077.75;;;6.26;76.54
3082;BME280;1551;51.046;7.010;2023-05-03T03:45:11;102070.88;;;6.22;77.49
3082;BME280;1551;51.046;7.010;2023-05-03T03:48:01;102070.00;;;6.21;77.40
3082;BME280;1551;51.046;7.010;2023-05-03T03:50:50;102063.22;;;6.20;77.31
3082;BME280;1551;51.046;7.010;2023-05-03T03:53:42;102077.34;;;6.12;77.52
3082;BME280;1551;51.046;7.010;2023-05-03T03:56:30;102071.34;;;6.09;77.25
3082;BME280;1551;51.046;7.010;2023-05-03T03:59:20;102077.34;;;6.12;77.45
3082;BME280;1551;51.046;7.010;2023-05-03T04:02:09;102063.78;;;6.12;77.84
3082;BME280;1551;51.046;7.010;2023-05-03T04:04:58;102064.09;;;6.21;77.55
3082;BME280;1551;51.046;7.010;2023-05-03T04:07:47;102073.25;;;6.16;78.00
3082;BME280;1551;51.046;7.010;2023-05-03T04:10:38;102072.47;;;6.18;78.33
3082;BME280;1551;51.046;7.010;2023-05-03T04:13:27;102069.19;;;6.22;77.47
3082;BME280;1551;51.046;7.010;2023-05-03T04:16:18;102069.28;;;6.26;77.68
3082;BME280;1551;51.046;7.010;2023-05-03T04:19:08;102052.91;;;6.16;77.01
3082;BME280;1551;51.046;7.010;2023-05-03T04:22:00;102046.28;;;6.21;77.19
3082;BME280;1551;51.046;7.010;2023-05-03T04:24:49;102052.06;;;6.17;77.48
3082;BME280;1551;51.046;7.010;2023-05-03T04:27:39;102046.97;;;6.15;77.81
3082;BME280;1551;51.046;7.010;2023-05-03T04:30:29;102036.13;;;6.21;77.34
3082;BME280;1551;51.046;7.010;2023-05-03T04:33:22;102043.09;;;6.28;76.90
3082;BME280;1551;51.046;7.010;2023-05-03T04:36:13;102045.59;;;6.27;76.66
3082;BME280;1551;51.046;7.010;2023-05-03T04:39:05;102056.50;;;6.22;77.17
3082;BME280;1551;51.046;7.010;2023-05-03T04:41:57;102063.22;;;6.20;77.26
3082;BME280;1551;51.046;7.010;2023-05-03T04:44:46;102070.84;;;6.20;76.42
3082;BME280;1551;51.046;7.010;2023-05-03T04:47:35;102064.22;;;6.26;76.84
3082;BME280;1551;51.046;7.010;2023-05-03T04:50:25;102077.13;;;6.33;76.74
3082;BME280;1551;51.046;7.010;2023-05-03T04:53:14;102081.53;;;6.39;76.62
3082;BME280;1551;51.046;7.010;2023-05-03T04:56:05;102092.69;;;6.42;76.31
3082;BME280;1551;51.046;7.010;2023-05-03T04:58:57;102091.03;;;6.44;77.30
3082;BME280;1551;51.046;7.010;2023-05-03T05:01:47;102094.84;;;6.58;77.01
3082;BME280;1551;51.046;7.010;2023-05-03T05:04:36;102100.22;;;6.69;76.89
3082;BME280;1551;51.046;7.010;2023-05-03T05:07:25;102089.47;;;6.77;76.92
3082;BME280;1551;51.046;7.010;2023-05-03T05:10:14;102096.47;;;6.86;77.09
3082;BME280;1551;51.046;7.010;2023-05-03T05:13:04;102097.69;;;6.99;76.68
3082;BME280;1551;51.046;7.010;2023-05-03T05:15:54;102084.41;;;7.10;76.47
3082;BME280;1551;51.046;7.010;2023-05-03T05:18:44;102095.75;;;7.23;76.80
3082;BME280;1551;51.046;7.010;2023-05-03T05:21:33;102085.09;;;7.36;76.43
3082;BME280;1551;51.046;7.010;2023-05-03T05:24:23;102095.75;;;7.55;75.54
3082;BME280;1551;51.046;7.010;2023-05-03T05:27:12;102091.94;;;7.73;74.90
3082;BME280;1551;51.046;7.010;2023-05-03T05:30:02;102095.59;;;7.84;73.97
3082;BME280;1551;51.046;7.010;2023-05-03T05:32:53;102104.53;;;8.02;72.67
3082;BME280;1551;51.046;7.010;2023-05-03T05:35:44;102107.38;;;8.16;71.41
3082;BME280;1551;51.046;7.010;2023-05-03T05:38:33;102116.09;;;8.25;70.97
3082;BME280;1551;51.046;7.010;2023-05-03T05:41:23;102120.53;;;8.32;69.66
3082;BME280;1551;51.046;7.010;2023-05-03T05:44:11;102129.41;;;8.48;68.77
3082;BME280;1551;51.046;7.010;2023-05-03T05:47:01;102122.03;;;8.62;67.68
3082;BME280;1551;51.046;7.010;2023-05-03T05:49:50;102128.28;;;8.74;66.80
3082;BME280;1551;51.046;7.010;2023-05-03T05:52:39;102137.09;;;8.90;65.46
3082;BME280;1551;51.046;7.010;2023-05-03T05:55:29;102136.47;;;9.02;65.59
3082;BME280;1551;51.046;7.010;2023-05-03T05:58:19;102136.66;;;9.12;64.31
3082;BME280;1551;51.046;7.010;2023-05-03T06:01:12;102142.03;;;9.26;64.05
3082;BME280;1551;51.046;7.010;2023-05-03T06:04:01;102145.66;;;9.37;63.25
3082;BME280;1551;51.046;7.010;2023-05-03T06:06:50;102141.66;;;9.51;62.95
3082;BME280;1551;51.046;7.010;2023-05-03T06:09:39;102136.69;;;9.58;62.52
3082;BME280;1551;51.046;7.010;2023-05-03T06:12:29;102135.06;;;9.65;62.39
3082;BME280;1551;51.046;7.010;2023-05-03T06:15:18;102148.16;;;9.83;61.62
3082;BME280;1551;51.046;7.010;2023-05-03T06:18:08;102144.91;;;9.93;61.12
3082;BME280;1551;51.046;7.010;2023-05-03T06:20:57;102148.50;;;10.06;60.41
3082;BME280;1551;51.046;7.010;2023-05-03T06:23:46;102150.47;;;10.17;60.16
3082;BME280;1551;51.046;7.010;2023-05-03T06:26:35;102146.34;;;10.28;59.31
3082;BME280;1551;51.046;7.010;2023-05-03T06:29:25;102154.31;;;10.50;58.43
3082;BME280;1551;51.046;7.010;2023-05-03T06:32:14;102148.63;;;10.69;58.06
3082;BME280;1551;51.046;7.010;2023-05-03T06:35:04;102159.16;;;10.93;58.29
3082;BME280;1551;51.046;7.010;2023-05-03T06:37:53;102149.97;;;11.10;57.09
3082;BME280;1551;51.046;7.010;2023-05-03T06:40:46;102143.41;;;11.36;56.17
3082;BME280;1551;51.046;7.010;2023-05-03T06:43:35;102158.28;;;11.70;55.64
3082;BME280;1551;51.046;7.010;2023-05-03T06:46:27;102149.97;;;11.99;54.59
3082;BME280;1551;51.046;7.010;2023-05-03T06:49:16;102151.81;;;12.18;53.02
3082;BME280;1551;51.046;7.010;2023-05-03T06:52:05;102160.59;;;12.50;52.46
3082;BME280;1551;51.046;7.010;2023-05-03T06:54:55;102159.91;;;12.80;51.82
3082;BME280;1551;51.046;7.010;2023-05-03T06:57:43;102158.25;;;13.00;51.25
3082;BME280;1551;51.046;7.010;2023-05-03T07:00:35;102154.97;;;13.31;50.30
3082;BME280;1551;51.046;7.010;2023-05-03T07:03:26;102155.81;;;13.57;49.56
3082;BME280;1551;51.046;7.010;2023-05-03T07:06:15;102155.00;;;13.72;48.21
3082;BME280;1551;51.046;7.010;2023-05-03T07:09:04;102155.84;;;13.72;47.57
3082;BME280;1551;51.046;7.010;2023-05-03T07:11:53;102151.59;;;13.85;47.45
3082;BME280;1551;51.046;7.010;2023-05-03T07:14:42;102145.53;;;14.12;47.22
3082;BME280;1551;51.046;7.010;2023-05-03T07:17:31;102151.56;;;14.32;46.88
3082;BME280;1551;51.046;7.010;2023-05-03T07:20:20;102153.22;;;14.50;46.48
3082;BME280;1551;51.046;7.010;2023-05-03T07:23:09;102140.22;;;14.83;46.44
3082;BME280;1551;51.046;7.010;2023-05-03T07:25:58;102149.56;;;15.06;44.74
3082;BME280;1551;51.046;7.010;2023-05-03T07:28:47;102159.88;;;15.03;43.91
3082;BME280;1551;51.046;7.010;2023-05-03T07:31:36;102153.88;;;15.06;43.88
3082;BME280;1551;51.046;7.010;2023-05-03T07:34:25;102148.47;;;15.44;45.02
3082;BME280;1551;51.046;7.010;2023-05-03T07:37:14;102140.59;;;15.68;43.35
3082;BME280;1551;51.046;7.010;2023-05-03T07:40:05;102141.38;;;15.79;42.21
3082;BME280;1551;51.046;7.010;2023-05-03T07:42:54;102127.34;;;16.04;42.29
3082;BME280;1551;51.046;7.010;2023-05-03T07:45:43;102120.22;;;16.27;42.20
3082;BME280;1551;51.046;7.010;2023-05-03T07:48:32;102132.31;;;16.25;40.78
3082;BME280;1551;51.046;7.010;2023-05-03T07:51:21;102125.44;;;16.24;42.02
3082;BME280;1551;51.046;7.010;2023-05-03T07:54:10;102127.63;;;16.64;40.86
3082;BME280;1551;51.046;7.010;2023-05-03T07:56:59;102126.00;;;16.55;40.37
3082;BME280;1551;51.046;7.010;2023-05-03T07:59:48;102117.38;;;16.55;40.43
3082;BME280;1551;51.046;7.010;2023-05-03T08:02:37;102114.53;;;16.76;39.15
3082;BME280;1551;51.046;7.010;2023-05-03T08:05:26;102102.25;;;16.91;40.16
3082;BME280;1551;51.046;7.010;2023-05-03T08:08:15;102105.28;;;17.21;39.43
3082;BME280;1551;51.046;7.010;2023-05-03T08:11:04;102104.03;;;17.44;39.93
3082;BME280;1551;51.046;7.010;2023-05-03T08:13:52;102105.00;;;17.39;38.72
3082;BME280;1551;51.046;7.010;2023-05-03T08:16:42;102087.03;;;17.28;37.80
3082;BME280;1551;51.046;7.010;2023-05-03T08:19:30;102110.91;;;17.48;39.09
3082;BME280;1551;51.046;7.010;2023-05-03T08:22:19;102115.50;;;17.84;40.86
3082;BME280;1551;51.046;7.010;2023-05-03T08:25:08;102094.56;;;17.98;40.88
3082;BME280;1551;51.046;7.010;2023-05-03T08:27:58;102121.03;;;18.14;38.51
3082;BME280;1551;51.046;7.010;2023-05-03T08:30:47;102111.81;;;17.98;37.96
3082;BME280;1551;51.046;7.010;2023-05-03T08:33:36;102109.75;;;18.16;38.27
3082;BME280;1551;51.046;7.010;2023-05-03T08:36:25;102110.06;;;18.45;39.06
3082;BME280;1551;51.046;7.010;2023-05-03T08:39:14;102105.84;;;18.40;39.53
3082;BME280;1551;51.046;7.010;2023-05-03T08:42:07;102106.34;;;18.59;38.61
3082;BME280;1551;51.046;7.010;2023-05-03T08:44:56;102109.63;;;18.67;38.04
3082;BME280;1551;51.046;7.010;2023-05-03T08:47:45;102113.78;;;18.75;37.14
3082;BME280;1551;51.046;7.010;2023-05-03T08:50:35;102109.34;;;18.37;36.93
3082;BME280;1551;51.046;7.010;2023-05-03T08:53:29;102103.44;;;17.82;36.92
3082;BME280;1551;51.046;7.010;2023-05-03T08:56:29;102101.84;;;18.24;36.20
3082;BME280;1551;51.046;7.010;2023-05-03T08:59:20;102096.00;;;18.57;36.35
3082;BME280;1551;51.046;7.010;2023-05-03T09:02:10;102094.94;;;18.67;35.84
3082;BME280;1551;51.046;7.010;2023-05-03T09:05:00;102095.53;;;18.80;35.25
3082;BME280;1551;51.046;7.010;2023-05-03T09:08:10;102093.00;;;19.15;35.03
3082;BME280;1551;51.046;7.010;2023-05-03T09:10:59;102103.22;;;19.59;35.66
3082;BME280;1551;51.046;7.010;2023-05-03T09:13:50;102087.66;;;19.21;35.55
3082;BME280;1551;51.046;7.010;2023-05-03T09:16:42;102088.97;;;19.40;35.80
3082;BME280;1551;51.046;7.010;2023-05-03T09:22:49;102086.06;;;19.86;35.27
3082;BME280;1551;51.046;7.010;2023-05-03T09:25:41;102073.41;;;20.06;33.77
3082;BME280;1551;51.046;7.010;2023-05-03T09:28:40;102080.13;;;20.45;35.64
3082;BME280;1551;51.046;7.010;2023-05-03T09:31:30;102077.03;;;20.62;33.58
3082;BME280;1551;51.046;7.010;2023-05-03T09:34:20;102077.44;;;20.48;33.72
3082;BME280;1551;51.046;7.010;2023-05-03T09:37:11;102077.91;;;20.61;33.23
3082;BME280;1551;51.046;7.010;2023-05-03T09:40:05;102075.00;;;20.42;32.27
3082;BME280;1551;51.046;7.010;2023-05-03T09:43:06;102067.72;;;20.83;33.63
3082;BME280;1551;51.046;7.010;2023-05-03T09:46:12;102063.94;;;21.20;32.73
3082;BME280;1551;51.046;7.010;2023-05-03T09:49:01;102060.00;;;21.61;33.07
3082;BME280;1551;51.046;7.010;2023-05-03T09:51:51;102043.69;;;21.55;30.75
3082;BME280;1551;51.046;7.010;2023-05-03T09:54:41;102059.84;;;21.90;30.90
3082;BME280;1551;51.046;7.010;2023-05-03T09:57:31;102065.69;;;21.72;30.53
3082;BME280;1551;51.046;7.010;2023-05-03T10:00:21;102066.22;;;21.82;29.71
3082;BME280;1551;51.046;7.010;2023-05-03T10:03:11;102055.88;;;22.05;29.80
3082;BME280;1551;51.046;7.010;2023-05-03T10:06:02;102053.34;;;22.02;29.44
3082;BME280;1551;51.046;7.010;2023-05-03T10:08:57;102053.44;;;22.47;29.09
3082;BME280;1551;51.046;7.010;2023-05-03T10:11:57;102051.09;;;22.16;29.19
3082;BME280;1551;51.046;7.010;2023-05-03T10:14:47;102043.41;;;22.36;28.77
3082;BME280;1551;51.046;7.010;2023-05-03T10:17:39;102029.22;;;22.43;29.24
3082;BME280;1551;51.046;7.010;2023-05-03T10:20:44;102030.91;;;22.68;28.56
3082;BME280;1551;51.046;7.010;2023-05-03T10:24:08;102023.63;;;23.61;29.67
3082;BME280;1551;51.046;7.010;2023-05-03T10:26:57;102021.44;;;23.90;27.52
3082;BME280;1551;51.046;7.010;2023-05-03T10:29:47;102009.13;;;23.92;26.46
3082;BME280;1551;51.046;7.010;2023-05-03T10:32:38;102008.25;;;23.92;26.05
3082;BME280;1551;51.046;7.010;2023-05-03T10:35:31;102005.66;;;24.31;26.02
3082;BME280;1551;51.046;7.010;2023-05-03T10:38:21;102019.78;;;24.64;26.74
3082;BME280;1551;51.046;7.010;2023-05-03T10:41:11;102008.25;;;24.68;26.80
3082;BME280;1551;51.046;7.010;2023-05-03T10:44:00;102002.06;;;24.88;26.78
3082;BME280;1551;51.046;7.010;2023-05-03T10:46:52;102011.91;;;25.01;26.93
3082;BME280;1551;51.046;7.010;2023-05-03T10:49:41;102010.69;;;25.08;26.50
3082;BME280;1551;51.046;7.010;2023-05-03T10:55:23;102004.19;;;24.98;27.60
3082;BME280;1551;51.046;7.010;2023-05-03T10:58:15;101995.88;;;25.24;27.56
3082;BME280;1551;51.046;7.010;2023-05-03T11:01:06;102007.75;;;25.49;26.57
3082;BME280;1551;51.046;7.010;2023-05-03T11:04:02;102005.59;;;25.74;26.07
3082;BME280;1551;51.046;7.010;2023-05-03T11:06:55;102000.84;;;25.80;26.87
3082;BME280;1551;51.046;7.010;2023-05-03T11:09:46;102000.88;;;26.13;24.09
3082;BME280;1551;51.046;7.010;2023-05-03T11:12:35;101990.47;;;26.43;25.95
3082;BME280;1551;51.046;7.010;2023-05-03T11:15:24;101998.00;;;26.80;24.68
3082;BME280;1551;51.046;7.010;2023-05-03T11:18:13;101981.25;;;26.51;23.66
3082;BME280;1551;51.046;7.010;2023-05-03T11:21:02;101981.47;;;26.63;26.79
3082;BME280;1551;51.046;7.010;2023-05-03T11:23:51;101976.91;;;27.11;24.48
3082;BME280;1551;51.046;7.010;2023-05-03T11:26:40;101976.84;;;26.97;25.54
3082;BME280;1551;51.046;7.010;2023-05-03T11:29:29;101987.69;;;25.98;24.37
3082;BME280;1551;51.046;7.010;2023-05-03T11:32:20;101984.69;;;26.36;24.33
3082;BME280;1551;51.046;7.010;2023-05-03T11:35:14;101981.78;;;26.88;24.79
3082;BME280;1551;51.046;7.010;2023-05-03T11:38:03;101961.88;;;26.68;24.70
3082;BME280;1551;51.046;7.010;2023-05-03T11:40:52;101980.47;;;26.65;23.99
3082;BME280;1551;51.046;7.010;2023-05-03T11:43:46;101970.47;;;26.56;24.39
3082;BME280;1551;51.046;7.010;2023-05-03T11:46:36;101976.22;;;26.78;23.20
3082;BME280;1551;51.046;7.010;2023-05-03T11:49:27;101974.22;;;25.55;24.25
3082;BME280;1551;51.046;7.010;2023-05-03T11:52:20;101964.94;;;24.61;24.82
3082;BME280;1551;51.046;7.010;2023-05-03T11:55:10;101954.53;;;24.59;25.31
3082;BME280;1551;51.046;7.010;2023-05-03T11:57:59;101950.53;;;24.88;25.84
3082;BME280;1551;51.046;7.010;2023-05-03T12:00:50;101955.06;;;26.34;25.37
3082;BME280;1551;51.046;7.010;2023-05-03T12:03:39;101947.31;;;26.47;25.53
3082;BME280;1551;51.046;7.010;2023-05-03T12:06:30;101945.19;;;26.69;24.58
3082;BME280;1551;51.046;7.010;2023-05-03T12:09:23;101953.34;;;27.10;23.96
3082;BME280;1551;51.046;7.010;2023-05-03T12:12:18;101946.53;;;27.36;24.29
3082;BME280;1551;51.046;7.010;2023-05-03T12:15:07;101951.38;;;26.84;23.12
3082;BME280;1551;51.046;7.010;2023-05-03T12:17:59;101942.22;;;26.75;22.11
3082;BME280;1551;51.046;7.010;2023-05-03T12:20:54;101942.69;;;26.36;22.75
3082;BME280;1551;51.046;7.010;2023-05-03T12:23:45;101938.66;;;25.82;23.60
3082;BME280;1551;51.046;7.010;2023-05-03T12:26:37;101928.88;;;26.17;24.38
3082;BME280;1551;51.046;7.010;2023-05-03T12:29:25;101936.00;;;26.46;23.74
3082;BME280;1551;51.046;7.010;2023-05-03T12:32:15;101928.59;;;26.06;24.80
3082;BME280;1551;51.046;7.010;2023-05-03T12:35:08;101929.47;;;26.53;23.82
3082;BME280;1551;51.046;7.010;2023-05-03T12:37:57;101928.66;;;26.67;24.50
3082;BME280;1551;51.046;7.010;2023-05-03T12:40:46;101920.91;;;26.50;24.17
3082;BME280;1551;51.046;7.010;2023-05-03T12:43:35;101909.38;;;26.52;24.85
3082;BME280;1551;51.046;7.010;2023-05-03T12:46:24;101913.81;;;26.36;24.86
3082;BME280;1551;51.046;7.010;2023-05-03T12:49:13;101904.97;;;26.53;24.65
3082;BME280;1551;51.046;7.010;2023-05-03T12:52:02;101904.38;;;26.48;23.52
3082;BME280;1551;51.046;7.010;2023-05-03T12:54:51;101894.25;;;26.42;23.29
3082;BME280;1551;51.046;7.010;2023-05-03T12:57:40;101889.03;;;26.56;22.99
3082;BME280;1551;51.046;7.010;2023-05-03T13:00:30;101883.97;;;26.53;24.10
3082;BME280;1551;51.046;7.010;2023-05-03T13:03:19;101877.63;;;25.94;25.01
3082;BME280;1551;51.046;7.010;2023-05-03T13:06:08;101868.56;;;26.31;25.35
3082;BME280;1551;51.046;7.010;2023-05-03T13:08:57;101878.44;;;26.57;24.46
3082;BME280;1551;51.046;7.010;2023-05-03T13:11:46;101870.72;;;26.25;24.22
3082;BME280;1551;51.046;7.010;2023-05-03T13:14:37;101858.09;;;26.16;23.53
3082;BME280;1551;51.046;7.010;2023-05-03T13:17:27;101844.53;;;26.08;23.99
3082;BME280;1551;51.046;7.010;2023-05-03T13:20:16;101841.75;;;25.95;23.62
3082;BME280;1551;51.046;7.010;2023-05-03T13:23:04;101848.91;;;26.07;24.59
3082;BME280;1551;51.046;7.010;2023-05-03T13:25:53;101835.13;;;26.35;24.14
3082;BME280;1551;51.046;7.010;2023-05-03T13:28:45;101845.38;;;26.24;24.32
3082;BME280;1551;51.046;7.010;2023-05-03T13:31:34;101844.72;;;26.20;24.34
3082;BME280;1551;51.046;7.010;2023-05-03T13:34:23;101841.06;;;26.23;25.58
3082;BME280;1551;51.046;7.010;2023-05-03T13:37:12;101830.25;;;25.98;24.53
3082;BME280;1551;51.046;7.010;2023-05-03T13:40:06;101831.59;;;25.58;25.28
3082;BME280;1551;51.046;7.010;2023-05-03T13:42:55;101818.97;;;25.80;26.31
3082;BME280;1551;51.046;7.010;2023-05-03T13:45:44;101826.25;;;26.06;25.60
3082;BME280;1551;51.046;7.010;2023-05-03T13:48:33;101813.22;;;26.20;25.16
3082;BME280;1551;51.046;7.010;2023-05-03T13:51:22;101806.38;;;26.02;25.46
3082;BME280;1551;51.046;7.010;2023-05-03T13:54:12;101795.88;;;25.86;26.02
3082;BME280;1551;51.046;7.010;2023-05-03T13:57:01;101793.34;;;25.21;26.04
3082;BME280;1551;51.046;7.010;2023-05-03T13:59:50;101787.72;;;25.28;26.74
3082;BME280;1551;51.046;7.010;2023-05-03T14:02:39;101789.03;;;25.53;26.15
3082;BME280;1551;51.046;7.010;2023-05-03T14:05:28;101785.81;;;25.48;25.30
3082;BME280;1551;51.046;7.010;2023-05-03T14:08:17;101780.44;;;25.34;26.68
3082;BME280;1551;51.046;7.010;2023-05-03T14:11:16;101767.09;;;25.38;25.66
3082;BME280;1551;51.046;7.010;2023-05-03T14:14:06;101770.34;;;25.59;26.27
3082;BME280;1551;51.046;7.010;2023-05-03T14:16:55;101773.47;;;25.50;25.91
3082;BME280;1551;51.046;7.010;2023-05-03T14:19:44;101764.91;;;25.46;26.03
3082;BME280;1551;51.046;7.010;2023-05-03T14:22:35;101759.34;;;25.52;26.96
3082;BME280;1551;51.046;7.010;2023-05-03T14:25:25;101758.13;;;25.42;26.58
3082;BME280;1551;51.046;7.010;2023-05-03T14:28:14;101756.88;;;25.49;26.79
3082;BME280;1551;51.046;7.010;2023-05-03T14:31:03;101744.66;;;25.33;26.81
3082;BME280;1551;51.046;7.010;2023-05-03T14:33:54;101743.78;;;25.01;27.45
3082;BME280;1551;51.046;7.010;2023-05-03T14:36:43;101738.19;;;24.74;27.16
3082;BME280;1551;51.046;7.010;2023-05-03T14:39:32;101734.81;;;24.55;27.64
3082;BME280;1551;51.046;7.010;2023-05-03T14:42:21;101729.47;;;24.24;27.31
3082;BME280;1551;51.046;7.010;2023-05-03T14:45:10;101726.94;;;24.04;27.25
3082;BME280;1551;51.046;7.010;2023-05-03T14:48:02;101721.09;;;23.99;28.10
3082;BME280;1551;51.046;7.010;2023-05-03T14:50:52;101716.84;;;23.79;28.27
3082;BME280;1551;51.046;7.010;2023-05-03T14:53:41;101710.63;;;23.81;29.13
3082;BME280;1551;51.046;7.010;2023-05-03T14:56:30;101705.59;;;23.60;27.98
3082;BME280;1551;51.046;7.010;2023-05-03T14:59:20;101709.19;;;23.57;28.67
3082;BME280;1551;51.046;7.010;2023-05-03T15:02:09;101698.53;;;23.43;27.21
3082;BME280;1551;51.046;7.010;2023-05-03T15:04:58;101714.78;;;23.50;28.31
3082;BME280;1551;51.046;7.010;2023-05-03T15:07:48;101706.00;;;23.32;27.05
3082;BME280;1551;51.046;7.010;2023-05-03T15:10:37;101705.31;;;23.47;27.79
3082;BME280;1551;51.046;7.010;2023-05-03T15:13:27;101697.22;;;23.35;27.79
3082;BME280;1551;51.046;7.010;2023-05-03T15:16:16;101699.66;;;23.38;27.72
3082;BME280;1551;51.046;7.010;2023-05-03T15:19:05;101694.63;;;23.33;27.34
3082;BME280;1551;51.046;7.010;2023-05-03T15:21:55;101695.00;;;23.25;27.39
3082;BME280;1551;51.046;7.010;2023-05-03T15:24:44;101689.28;;;22.99;27.37
3082;BME280;1551;51.046;7.010;2023-05-03T15:27:34;101690.41;;;23.12;27.83